sensor_id;sensor_type;location;lat;lon;timestamp;pressure;altitude;pressure_sealevel;temperature;humidity
46506;BME280;32220;49.808;9.968;2023-08-17T00:01:40;99004.97;;;22.28;78.98
46506;BME280;32220;49.808;9.968;2023-08-17T00:04:08;99000.28;;;22.30;78.00
46506;BME280;32220;49.808;9.968;2023-08-17T00:06:36;98966.38;;;22.11;78.04
46506;BME280;32220;49.808;9.968;2023-08-17T00:09:04;98978.69;;;22.22;77.70
46506;BME280;32220;49.808;9.968;2023-08-17T00:11:33;98997.25;;;22.25;77.47
46506;BME280;32220;49.808;9.968;2023-08-17T00:14:01;99001.78;;;22.25;77.81
46506;BME280;32220;49.808;9.968;2023-08-17T00:16:30;98999.06;;;22.16;77.87
46506;BME280;32220;49.808;9.968;2023-08-17T00:19:01;98985.72;;;22.07;78.00
46506;BME280;32220;49.808;9.968;2023-08-17T00:21:30;98960.38;;;21.92;78.15
46506;BME280;32220;49.808;9.968;2023-08-17T00:24:02;98972.91;;;22.01;77.91
46506;BME280;32220;49.808;9.968;2023-08-17T00:26:30;98982.53;;;22.03;77.70
46506;BME280;32220;49.808;9.968;2023-08-17T00:29:00;98968.78;;;21.88;77.62
46506;BME280;32220;49.808;9.968;2023-08-17T01:11:41;98948.72;;;21.75;79.73
46506;BME280;32220;49.808;9.968;2023-08-17T01:15:03;98933.41;;;21.75;81.70
46506;BME280;32220;49.808;9.968;2023-08-17T01:17:56;98931.34;;;21.61;82.89
46506;BME280;32220;49.808;9.968;2023-08-17T01:20:57;98857.72;;;21.10;83.12
46506;BME280;32220;49.808;9.968;2023-08-17T01:23:48;98902.63;;;21.36;83.90
46506;BME280;32220;49.808;9.968;2023-08-17T01:42:07;98953.47;;;21.39;81.56
46506;BME280;32220;49.808;9.968;2023-08-17T01:44:35;98952.31;;;21.41;81.40
46506;BME280;32220;49.808;9.968;2023-08-17T01:47:04;98942.34;;;21.34;81.63
46506;BME280;32220;49.808;9.968;2023-08-17T01:49:31;98959.91;;;21.46;81.58
46506;BME280;32220;49.808;9.968;2023-08-17T02:12:03;98939.53;;;21.17;82.02
46506;BME280;32220;49.808;9.968;2023-08-17T02:14:31;98954.84;;;21.17;81.82
46506;BME280;32220;49.808;9.968;2023-08-17T02:16:58;98905.41;;;20.92;82.00
46506;BME280;32220;49.808;9.968;2023-08-17T02:19:27;98917.56;;;20.96;82.36
46506;BME280;32220;49.808;9.968;2023-08-17T02:21:55;98908.78;;;20.94;82.42
46506;BME280;32220;49.808;9.968;2023-08-17T02:24:22;98927.88;;;21.09;82.27
46506;BME280;32220;49.808;9.968;2023-08-17T02:26:53;98899.69;;;20.87;82.22
46506;BME280;32220;49.808;9.968;2023-08-17T02:29:22;98894.44;;;20.86;83.19
46506;BME280;32220;49.808;9.968;2023-08-17T02:31:49;98907.78;;;20.95;83.91
46506;BME280;32220;49.808;9.968;2023-08-17T02:34:18;98905.94;;;20.96;84.90
46506;BME280;32220;49.808;9.968;2023-08-17T02:37:09;98866.59;;;20.69;84.28
46506;BME280;32220;49.808;9.968;2023-08-17T02:39:36;98895.91;;;20.80;84.85
46506;BME280;32220;49.808;9.968;2023-08-17T02:42:04;98918.88;;;20.92;84.47
46506;BME280;32220;49.808;9.968;2023-08-17T02:44:33;98918.53;;;20.87;84.27
46506;BME280;32220;49.808;9.968;2023-08-17T02:47:03;98914.28;;;20.85;84.18
46506;BME280;32220;49.808;9.968;2023-08-17T02:49:30;98932.97;;;20.86;83.92
46506;BME280;32220;49.808;9.968;2023-08-17T02:51:58;98894.66;;;20.66;83.71
46506;BME280;32220;49.808;9.968;2023-08-17T02:54:26;98907.34;;;20.74;84.18
46506;BME280;32220;49.808;9.968;2023-08-17T02:56:53;98908.25;;;20.65;84.55
46506;BME280;32220;49.808;9.968;2023-08-17T02:59:21;98932.91;;;20.78;83.98
46506;BME280;32220;49.808;9.968;2023-08-17T03:01:53;98923.78;;;20.71;83.76
46506;BME280;32220;49.808;9.968;2023-08-17T03:04:21;98927.78;;;20.67;83.93
46506;BME280;32220;49.808;9.968;2023-08-17T03:06:51;98936.25;;;20.72;83.23
46506;BME280;32220;49.808;9.968;2023-08-17T03:09:18;98920.38;;;20.61;83.81
46506;BME280;32220;49.808;9.968;2023-08-17T03:11:47;98920.06;;;20.64;83.61
46506;BME280;32220;49.808;9.968;2023-08-17T03:14:17;98918.84;;;20.58;83.73
46506;BME280;32220;49.808;9.968;2023-08-17T03:53:36;98903.28;;;20.26;84.02
46506;BME280;32220;49.808;9.968;2023-08-17T03:56:04;98922.72;;;20.38;83.90
46506;BME280;32220;49.808;9.968;2023-08-17T03:58:31;98921.03;;;20.37;85.03
46506;BME280;32220;49.808;9.968;2023-08-17T04:01:00;98925.41;;;20.38;84.46
46506;BME280;32220;49.808;9.968;2023-08-17T04:03:30;98924.56;;;20.37;84.24
46506;BME280;32220;49.808;9.968;2023-08-17T04:06:04;98913.38;;;20.32;83.73
46506;BME280;32220;49.808;9.968;2023-08-17T04:08:32;98906.97;;;20.25;83.26
46506;BME280;32220;49.808;9.968;2023-08-17T04:12:33;98888.69;;;20.11;83.28
46506;BME280;32220;49.808;9.968;2023-08-17T04:15:00;98877.84;;;20.03;83.29
46506;BME280;32220;49.808;9.968;2023-08-17T04:17:28;98875.16;;;20.03;83.15
46506;BME280;32220;49.808;9.968;2023-08-17T04:19:56;98895.44;;;20.15;83.07
46506;BME280;32220;49.808;9.968;2023-08-17T04:22:25;98923.16;;;20.33;83.21
46506;BME280;32220;49.808;9.968;2023-08-17T04:24:53;98916.72;;;20.26;82.83
46506;BME280;32220;49.808;9.968;2023-08-17T04:27:21;98939.53;;;20.40;82.57
46506;BME280;32220;49.808;9.968;2023-08-17T04:29:50;98875.50;;;20.00;82.65
46506;BME280;32220;49.808;9.968;2023-08-17T04:32:19;98927.53;;;20.34;82.97
46506;BME280;32220;49.808;9.968;2023-08-17T04:34:47;98938.72;;;20.39;82.79
46506;BME280;32220;49.808;9.968;2023-08-17T04:37:15;98912.94;;;20.19;82.74
46506;BME280;32220;49.808;9.968;2023-08-17T04:39:43;98936.53;;;20.43;82.54
46506;BME280;32220;49.808;9.968;2023-08-17T04:42:17;98942.47;;;20.47;82.95
46506;BME280;32220;49.808;9.968;2023-08-17T04:44:46;98947.69;;;20.48;83.15
46506;BME280;32220;49.808;9.968;2023-08-17T04:47:15;98949.22;;;20.51;83.33
46506;BME280;32220;49.808;9.968;2023-08-17T04:49:43;98945.91;;;20.57;82.79
46506;BME280;32220;49.808;9.968;2023-08-17T04:52:11;98950.66;;;20.63;82.54
46506;BME280;32220;49.808;9.968;2023-08-17T04:54:39;98939.22;;;20.61;82.71
46506;BME280;32220;49.808;9.968;2023-08-17T04:57:07;98945.03;;;20.74;82.69
46506;BME280;32220;49.808;9.968;2023-08-17T04:59:35;98944.06;;;20.83;83.47
46506;BME280;32220;49.808;9.968;2023-08-17T05:02:03;98944.44;;;20.88;83.08
46506;BME280;32220;49.808;9.968;2023-08-17T05:04:34;98941.09;;;20.94;83.15
46506;BME280;32220;49.808;9.968;2023-08-17T05:07:01;98939.63;;;21.00;83.07
46506;BME280;32220;49.808;9.968;2023-08-17T05:09:30;98901.31;;;20.80;83.11
46506;BME280;32220;49.808;9.968;2023-08-17T05:11:58;98939.19;;;21.12;83.15
46506;BME280;32220;49.808;9.968;2023-08-17T05:14:26;98935.50;;;21.13;82.64
46506;BME280;32220;49.808;9.968;2023-08-17T05:16:54;98927.78;;;21.19;82.42
46506;BME280;32220;49.808;9.968;2023-08-17T05:19:22;98928.50;;;21.29;82.65
46506;BME280;32220;49.808;9.968;2023-08-17T05:21:51;98936.28;;;21.40;83.26
46506;BME280;32220;49.808;9.968;2023-08-17T05:24:20;98939.72;;;21.50;82.47
46506;BME280;32220;49.808;9.968;2023-08-17T05:26:48;98945.13;;;21.58;82.24
46506;BME280;32220;49.808;9.968;2023-08-17T05:29:15;98946.84;;;21.67;81.97
46506;BME280;32220;49.808;9.968;2023-08-17T05:31:43;98943.34;;;21.75;82.15
46506;BME280;32220;49.808;9.968;2023-08-17T05:34:10;98941.50;;;21.83;82.00
46506;BME280;32220;49.808;9.968;2023-08-17T05:36:39;98919.72;;;21.77;82.36
46506;BME280;32220;49.808;9.968;2023-08-17T05:39:08;98940.72;;;21.99;82.05
46506;BME280;32220;49.808;9.968;2023-08-17T05:41:36;98935.81;;;22.03;81.79
46506;BME280;32220;49.808;9.968;2023-08-17T05:44:05;98943.94;;;22.19;81.78
46506;BME280;32220;49.808;9.968;2023-08-17T05:46:33;98941.25;;;22.27;81.22
46506;BME280;32220;49.808;9.968;2023-08-17T05:49:01;98942.59;;;22.39;81.13
46506;BME280;32220;49.808;9.968;2023-08-17T05:51:28;98945.97;;;22.57;80.87
46506;BME280;32220;49.808;9.968;2023-08-17T05:53:56;98949.00;;;22.87;79.68
46506;BME280;32220;49.808;9.968;2023-08-17T05:56:25;98945.88;;;23.14;79.04
46506;BME280;32220;49.808;9.968;2023-08-17T05:58:53;98947.88;;;23.28;78.75
46506;BME280;32220;49.808;9.968;2023-08-17T06:01:21;98936.22;;;23.28;78.29
46506;BME280;32220;49.808;9.968;2023-08-17T06:03:49;98952.03;;;23.39;78.30
46506;BME280;32220;49.808;9.968;2023-08-17T06:06:17;98953.56;;;23.42;78.40
46506;BME280;32220;49.808;9.968;2023-08-17T06:08:44;98934.69;;;23.34;78.08
46506;BME280;32220;49.808;9.968;2023-08-17T06:11:12;98952.53;;;23.51;78.06
46506;BME280;32220;49.808;9.968;2023-08-17T06:13:41;98943.91;;;23.55;78.06
46506;BME280;32220;49.808;9.968;2023-08-17T06:16:08;98940.69;;;23.60;77.88
46506;BME280;32220;49.808;9.968;2023-08-17T06:18:36;98945.38;;;23.66;77.81
46506;BME280;32220;49.808;9.968;2023-08-17T06:21:04;98941.81;;;23.74;77.52
46506;BME280;32220;49.808;9.968;2023-08-17T06:23:31;98936.34;;;23.82;77.01
46506;BME280;32220;49.808;9.968;2023-08-17T06:25:59;98938.81;;;23.91;76.65
46506;BME280;32220;49.808;9.968;2023-08-17T06:28:27;98946.50;;;24.03;76.40
46506;BME280;32220;49.808;9.968;2023-08-17T06:30:56;98940.63;;;24.22;75.93
46506;BME280;32220;49.808;9.968;2023-08-17T06:33:24;98941.13;;;24.48;74.94
46506;BME280;32220;49.808;9.968;2023-08-17T06:35:51;98944.91;;;24.77;74.05
46506;BME280;32220;49.808;9.968;2023-08-17T06:38:19;98937.53;;;24.85;73.56
46506;BME280;32220;49.808;9.968;2023-08-17T06:40:46;98939.09;;;25.02;73.19
46506;BME280;32220;49.808;9.968;2023-08-17T06:43:14;98947.97;;;25.40;72.16
46506;BME280;32220;49.808;9.968;2023-08-17T06:45:41;98948.72;;;25.64;71.36
46506;BME280;32220;49.808;9.968;2023-08-17T06:48:10;98948.25;;;25.75;70.92
46506;BME280;32220;49.808;9.968;2023-08-17T06:50:38;98957.03;;;25.77;70.74
46506;BME280;32220;49.808;9.968;2023-08-17T06:53:06;98933.50;;;25.63;70.22
46506;BME280;32220;49.808;9.968;2023-08-17T06:55:34;98941.63;;;25.63;70.66
46506;BME280;32220;49.808;9.968;2023-08-17T06:58:02;98947.59;;;25.73;70.22
46506;BME280;32220;49.808;9.968;2023-08-17T07:00:29;98951.88;;;25.82;70.06
46506;BME280;32220;49.808;9.968;2023-08-17T07:02:57;98955.66;;;26.02;69.74
46506;BME280;32220;49.808;9.968;2023-08-17T07:05:26;98959.56;;;26.15;69.54
46506;BME280;32220;49.808;9.968;2023-08-17T07:07:53;98964.47;;;26.26;68.38
46506;BME280;32220;49.808;9.968;2023-08-17T07:10:21;98952.41;;;26.28;68.17
46506;BME280;32220;49.808;9.968;2023-08-17T07:12:49;98965.94;;;26.43;68.53
46506;BME280;32220;49.808;9.968;2023-08-17T07:15:16;98955.47;;;26.40;68.39
46506;BME280;32220;49.808;9.968;2023-08-17T07:17:44;98957.66;;;26.51;67.61
46506;BME280;32220;49.808;9.968;2023-08-17T07:20:11;98936.09;;;26.50;67.83
46506;BME280;32220;49.808;9.968;2023-08-17T07:22:40;98964.59;;;26.81;67.40
46506;BME280;32220;49.808;9.968;2023-08-17T07:25:08;98961.88;;;27.03;67.85
46506;BME280;32220;49.808;9.968;2023-08-17T07:27:36;98974.59;;;27.30;67.13
46506;BME280;32220;49.808;9.968;2023-08-17T07:30:04;98984.75;;;27.49;65.55
46506;BME280;32220;49.808;9.968;2023-08-17T07:32:32;98987.72;;;27.54;63.94
46506;BME280;32220;49.808;9.968;2023-08-17T07:34:59;98950.19;;;27.43;64.56
46506;BME280;32220;49.808;9.968;2023-08-17T07:37:27;98978.34;;;27.64;64.13
46506;BME280;32220;49.808;9.968;2023-08-17T07:40:01;98986.59;;;27.77;63.73
46506;BME280;32220;49.808;9.968;2023-08-17T07:42:29;98975.25;;;27.73;63.82
46506;BME280;32220;49.808;9.968;2023-08-17T07:44:57;98982.19;;;27.76;62.66
46506;BME280;32220;49.808;9.968;2023-08-17T07:47:25;98971.09;;;27.84;63.56
46506;BME280;32220;49.808;9.968;2023-08-17T07:49:52;98990.50;;;28.15;62.13
46506;BME280;32220;49.808;9.968;2023-08-17T07:52:20;98984.50;;;28.46;63.52
46506;BME280;32220;49.808;9.968;2023-08-17T07:54:47;98990.22;;;28.78;61.35
46506;BME280;32220;49.808;9.968;2023-08-17T07:57:16;98972.63;;;28.87;60.09
46506;BME280;32220;49.808;9.968;2023-08-17T07:59:44;99005.13;;;29.15;56.78
46506;BME280;32220;49.808;9.968;2023-08-17T08:02:11;98991.63;;;29.59;58.24
46506;BME280;32220;49.808;9.968;2023-08-17T08:04:39;98969.28;;;29.82;59.55
46506;BME280;32220;49.808;9.968;2023-08-17T08:07:06;98977.41;;;30.02;58.26
46506;BME280;32220;49.808;9.968;2023-08-17T08:09:34;98979.47;;;30.13;56.86
46506;BME280;32220;49.808;9.968;2023-08-17T08:12:01;98981.06;;;30.27;56.57
46506;BME280;32220;49.808;9.968;2023-08-17T08:14:30;98979.75;;;30.36;56.92
46506;BME280;32220;49.808;9.968;2023-08-17T08:16:58;98984.09;;;30.44;56.44
46506;BME280;32220;49.808;9.968;2023-08-17T08:19:26;98993.50;;;30.55;55.82
46506;BME280;32220;49.808;9.968;2023-08-17T08:21:53;99003.34;;;30.62;55.83
46506;BME280;32220;49.808;9.968;2023-08-17T08:24:21;98990.34;;;30.83;56.71
46506;BME280;32220;49.808;9.968;2023-08-17T08:26:48;98994.66;;;30.97;55.30
46506;BME280;32220;49.808;9.968;2023-08-17T08:29:17;98990.22;;;31.27;54.73
46506;BME280;32220;49.808;9.968;2023-08-17T08:31:46;98999.28;;;31.46;52.64
46506;BME280;32220;49.808;9.968;2023-08-17T08:34:13;98999.47;;;31.88;52.77
46506;BME280;32220;49.808;9.968;2023-08-17T08:36:41;98998.22;;;32.50;51.80
46506;BME280;32220;49.808;9.968;2023-08-17T08:39:08;98995.63;;;33.20;50.06
46506;BME280;32220;49.808;9.968;2023-08-17T08:41:37;99015.19;;;33.70;49.27
46506;BME280;32220;49.808;9.968;2023-08-17T08:44:05;99015.72;;;34.07;48.60
46506;BME280;32220;49.808;9.968;2023-08-17T08:46:33;99013.44;;;34.16;47.50
46506;BME280;32220;49.808;9.968;2023-08-17T08:49:03;99005.94;;;34.40;47.75
46506;BME280;32220;49.808;9.968;2023-08-17T08:51:38;99012.75;;;34.49;46.93
46506;BME280;32220;49.808;9.968;2023-08-17T08:54:08;98995.25;;;34.72;46.80
46506;BME280;32220;49.808;9.968;2023-08-17T08:56:42;99023.41;;;35.41;45.19
46506;BME280;32220;49.808;9.968;2023-08-17T08:59:12;99027.38;;;36.27;44.22
46506;BME280;32220;49.808;9.968;2023-08-17T09:01:40;99007.31;;;36.58;43.22
46506;BME280;32220;49.808;9.968;2023-08-17T09:04:09;99029.41;;;37.54;41.81
46506;BME280;32220;49.808;9.968;2023-08-17T09:06:40;99042.94;;;38.75;38.96
46506;BME280;32220;49.808;9.968;2023-08-17T09:09:10;99047.25;;;40.29;36.38
46506;BME280;32220;49.808;9.968;2023-08-17T09:11:39;99014.88;;;41.60;35.21
46506;BME280;32220;49.808;9.968;2023-08-17T09:14:07;99063.84;;;42.75;32.88
46506;BME280;32220;49.808;9.968;2023-08-17T09:16:34;99053.34;;;42.67;32.48
46506;BME280;32220;49.808;9.968;2023-08-17T09:19:05;99038.75;;;42.38;33.32
46506;BME280;32220;49.808;9.968;2023-08-17T09:21:35;99026.88;;;42.51;33.48
46506;BME280;32220;49.808;9.968;2023-08-17T09:24:03;99035.97;;;43.45;32.11
46506;BME280;32220;49.808;9.968;2023-08-17T09:26:31;99038.78;;;44.55;30.68
46506;BME280;32220;49.808;9.968;2023-08-17T09:28:59;99048.56;;;45.69;28.47
46506;BME280;32220;49.808;9.968;2023-08-17T09:31:30;99064.75;;;46.20;27.33
46506;BME280;32220;49.808;9.968;2023-08-17T09:33:58;99042.28;;;45.41;28.62
46506;BME280;32220;49.808;9.968;2023-08-17T09:36:25;99044.56;;;45.39;28.62
46506;BME280;32220;49.808;9.968;2023-08-17T09:38:54;99044.22;;;45.32;28.47
46506;BME280;32220;49.808;9.968;2023-08-17T09:41:23;99049.28;;;44.85;28.14
46506;BME280;32220;49.808;9.968;2023-08-17T09:43:50;99033.13;;;44.32;29.56
46506;BME280;32220;49.808;9.968;2023-08-17T09:46:21;99034.19;;;43.35;nan
46506;BME280;32220;49.808;9.968;2023-08-17T09:48:50;99027.34;;;42.34;32.12
46506;BME280;32220;49.808;9.968;2023-08-17T09:51:18;99003.56;;;41.51;33.26
46506;BME280;32220;49.808;9.968;2023-08-17T09:53:51;99008.72;;;40.66;32.85
46506;BME280;32220;49.808;9.968;2023-08-17T09:56:21;99001.78;;;40.09;34.59
46506;BME280;32220;49.808;9.968;2023-08-17T09:58:51;98981.91;;;39.82;35.09
46506;BME280;32220;49.808;9.968;2023-08-17T10:01:19;98979.75;;;39.59;35.35
46506;BME280;32220;49.808;9.968;2023-08-17T10:03:49;98980.41;;;39.15;36.69
46506;BME280;32220;49.808;9.968;2023-08-17T10:06:22;98982.53;;;38.52;36.82
46506;BME280;32220;49.808;9.968;2023-08-17T10:08:55;98969.34;;;37.92;37.53
46506;BME280;32220;49.808;9.968;2023-08-17T10:11:27;98968.50;;;37.81;37.90
46506;BME280;32220;49.808;9.968;2023-08-17T10:14:00;98955.72;;;37.75;37.54
46506;BME280;32220;49.808;9.968;2023-08-17T10:16:37;98956.34;;;37.97;38.30
46506;BME280;32220;49.808;9.968;2023-08-17T10:19:13;98950.81;;;37.97;39.43
46506;BME280;32220;49.808;9.968;2023-08-17T10:21:49;98953.03;;;37.90;40.48
46506;BME280;32220;49.808;9.968;2023-08-17T10:24:20;98956.84;;;37.74;39.63
46506;BME280;32220;49.808;9.968;2023-08-17T10:26:49;98949.22;;;37.49;39.79
46506;BME280;32220;49.808;9.968;2023-08-17T10:29:17;98953.81;;;37.28;40.00
46506;BME280;32220;49.808;9.968;2023-08-17T10:31:45;98946.19;;;37.09;40.41
46506;BME280;32220;49.808;9.968;2023-08-17T10:34:13;98959.91;;;36.98;40.44
46506;BME280;32220;49.808;9.968;2023-08-17T10:36:42;98949.13;;;36.97;40.51
46506;BME280;32220;49.808;9.968;2023-08-17T10:39:24;98937.56;;;37.00;42.72
46506;BME280;32220;49.808;9.968;2023-08-17T10:41:54;98929.06;;;37.07;42.46
46506;BME280;32220;49.808;9.968;2023-08-17T10:44:42;98953.28;;;37.31;40.81
46506;BME280;32220;49.808;9.968;2023-08-17T10:47:23;98940.78;;;37.66;41.85
46506;BME280;32220;49.808;9.968;2023-08-17T10:49:51;98945.66;;;38.11;40.46
46506;BME280;32220;49.808;9.968;2023-08-17T10:52:26;98948.75;;;38.30;39.51
46506;BME280;32220;49.808;9.968;2023-08-17T10:54:54;98948.81;;;38.60;39.62
46506;BME280;32220;49.808;9.968;2023-08-17T10:57:29;98946.03;;;39.26;38.58
46506;BME280;32220;49.808;9.968;2023-08-17T11:00:21;98960.38;;;40.23;36.97
46506;BME280;32220;49.808;9.968;2023-08-17T11:02:54;98964.38;;;40.90;36.02
46506;BME280;32220;49.808;9.968;2023-08-17T11:05:40;98967.94;;;41.53;35.45
46506;BME280;32220;49.808;9.968;2023-08-17T11:08:10;98971.50;;;41.59;34.08
46506;BME280;32220;49.808;9.968;2023-08-17T11:10:47;98968.97;;;41.63;34.76
46506;BME280;32220;49.808;9.968;2023-08-17T11:13:19;98979.31;;;41.81;32.97
46506;BME280;32220;49.808;9.968;2023-08-17T11:15:47;98963.69;;;42.27;34.09
46506;BME280;32220;49.808;9.968;2023-08-17T11:18:17;98968.75;;;42.25;33.72
46506;BME280;32220;49.808;9.968;2023-08-17T11:20:45;98957.00;;;42.28;33.84
46506;BME280;32220;49.808;9.968;2023-08-17T11:23:13;98958.56;;;42.35;32.50
46506;BME280;32220;49.808;9.968;2023-08-17T11:25:41;98948.25;;;42.16;33.32
46506;BME280;32220;49.808;9.968;2023-08-17T11:28:09;98959.69;;;42.34;33.56
46506;BME280;32220;49.808;9.968;2023-08-17T11:30:38;98966.22;;;42.05;33.99
46506;BME280;32220;49.808;9.968;2023-08-17T11:33:06;98969.38;;;41.75;33.78
46506;BME280;32220;49.808;9.968;2023-08-17T11:35:34;98973.13;;;41.36;32.21
46506;BME280;32220;49.808;9.968;2023-08-17T11:38:02;98957.19;;;41.71;34.63
46506;BME280;32220;49.808;9.968;2023-08-17T11:40:32;98965.19;;;42.20;33.11
46506;BME280;32220;49.808;9.968;2023-08-17T11:43:00;98958.97;;;42.47;32.98
46506;BME280;32220;49.808;9.968;2023-08-17T11:45:31;98949.50;;;42.48;32.55
46506;BME280;32220;49.808;9.968;2023-08-17T11:48:01;98957.44;;;43.06;33.49
46506;BME280;32220;49.808;9.968;2023-08-17T11:50:33;98956.97;;;43.63;32.86
46506;BME280;32220;49.808;9.968;2023-08-17T11:53:00;98952.84;;;43.75;31.52
46506;BME280;32220;49.808;9.968;2023-08-17T11:55:28;98967.63;;;43.61;31.84
46506;BME280;32220;49.808;9.968;2023-08-17T11:57:56;98973.81;;;43.86;31.03
46506;BME280;32220;49.808;9.968;2023-08-17T12:00:26;98974.28;;;44.15;30.62
46506;BME280;32220;49.808;9.968;2023-08-17T12:02:54;98975.78;;;44.85;29.91
46506;BME280;32220;49.808;9.968;2023-08-17T12:05:23;98973.88;;;45.47;28.81
46506;BME280;32220;49.808;9.968;2023-08-17T12:07:53;98972.03;;;45.73;28.46
46506;BME280;32220;49.808;9.968;2023-08-17T12:10:21;98934.38;;;45.49;27.90
46506;BME280;32220;49.808;9.968;2023-08-17T12:12:51;98959.44;;;46.02;28.24
46506;BME280;32220;49.808;9.968;2023-08-17T12:15:19;98974.03;;;47.07;27.29
46506;BME280;32220;49.808;9.968;2023-08-17T12:17:47;98970.31;;;48.09;25.73
46506;BME280;32220;49.808;9.968;2023-08-17T12:20:16;98969.72;;;49.07;25.23
46506;BME280;32220;49.808;9.968;2023-08-17T12:22:46;98970.34;;;49.94;24.61
46506;BME280;32220;49.808;9.968;2023-08-17T12:25:20;98973.38;;;50.66;24.03
46506;BME280;32220;49.808;9.968;2023-08-17T12:27:48;98967.53;;;51.15;22.04
46506;BME280;32220;49.808;9.968;2023-08-17T12:30:26;98974.94;;;51.82;22.58
46506;BME280;32220;49.808;9.968;2023-08-17T12:32:54;98977.13;;;52.04;20.54
46506;BME280;32220;49.808;9.968;2023-08-17T12:35:22;98959.34;;;52.39;21.83
46506;BME280;32220;49.808;9.968;2023-08-17T12:37:52;98965.31;;;52.72;20.70
46506;BME280;32220;49.808;9.968;2023-08-17T12:40:21;98963.44;;;52.80;21.21
46506;BME280;32220;49.808;9.968;2023-08-17T12:42:52;98965.19;;;53.04;21.17
46506;BME280;32220;49.808;9.968;2023-08-17T12:45:19;98959.69;;;52.92;20.93
46506;BME280;32220;49.808;9.968;2023-08-17T12:47:47;98961.38;;;51.25;21.47
46506;BME280;32220;49.808;9.968;2023-08-17T12:50:14;98961.81;;;50.55;21.87
46506;BME280;32220;49.808;9.968;2023-08-17T12:52:43;98939.50;;;50.78;22.70
46506;BME280;32220;49.808;9.968;2023-08-17T12:55:12;98951.06;;;51.32;22.11
46506;BME280;32220;49.808;9.968;2023-08-17T12:57:39;98949.09;;;51.80;22.20
46506;BME280;32220;49.808;9.968;2023-08-17T13:00:08;98943.38;;;52.12;21.38
46506;BME280;32220;49.808;9.968;2023-08-17T13:02:36;98947.47;;;52.14;22.05
46506;BME280;32220;49.808;9.968;2023-08-17T13:05:03;98946.31;;;51.99;21.62
46506;BME280;32220;49.808;9.968;2023-08-17T13:07:31;98938.47;;;51.14;22.59
46506;BME280;32220;49.808;9.968;2023-08-17T13:09:58;98944.69;;;51.35;22.36
46506;BME280;32220;49.808;9.968;2023-08-17T13:12:27;98935.50;;;51.70;22.18
46506;BME280;32220;49.808;9.968;2023-08-17T13:14:55;98932.56;;;51.98;21.84
46506;BME280;32220;49.808;9.968;2023-08-17T13:17:22;98928.75;;;51.75;20.74
46506;BME280;32220;49.808;9.968;2023-08-17T13:19:50;98926.47;;;51.49;21.93
46506;BME280;32220;49.808;9.968;2023-08-17T13:22:17;98920.56;;;51.22;21.99
46506;BME280;32220;49.808;9.968;2023-08-17T13:24:45;98925.09;;;50.67;22.53
46506;BME280;32220;49.808;9.968;2023-08-17T13:27:13;98916.28;;;50.17;23.18
46506;BME280;32220;49.808;9.968;2023-08-17T13:29:41;98902.59;;;49.79;23.40
46506;BME280;32220;49.808;9.968;2023-08-17T13:32:09;98907.63;;;49.49;23.80
46506;BME280;32220;49.808;9.968;2023-08-17T13:34:36;98905.63;;;49.25;23.87
46506;BME280;32220;49.808;9.968;2023-08-17T13:37:04;98912.47;;;48.91;23.41
46506;BME280;32220;49.808;9.968;2023-08-17T13:39:34;98899.00;;;48.43;24.42
46506;BME280;32220;49.808;9.968;2023-08-17T13:42:02;98896.50;;;48.00;23.88
46506;BME280;32220;49.808;9.968;2023-08-17T13:44:29;98877.34;;;48.02;24.23
46506;BME280;32220;49.808;9.968;2023-08-17T13:46:58;98881.03;;;48.35;24.63
46506;BME280;32220;49.808;9.968;2023-08-17T13:49:26;98877.13;;;48.48;24.16
46506;BME280;32220;49.808;9.968;2023-08-17T13:51:54;98882.56;;;48.53;24.21
46506;BME280;32220;49.808;9.968;2023-08-17T13:54:25;98869.72;;;48.44;24.65
46506;BME280;32220;49.808;9.968;2023-08-17T13:56:52;98871.34;;;48.33;24.17
46506;BME280;32220;49.808;9.968;2023-08-17T13:59:20;98865.50;;;48.17;24.56
46506;BME280;32220;49.808;9.968;2023-08-17T14:01:50;98864.44;;;48.01;25.22
46506;BME280;32220;49.808;9.968;2023-08-17T14:04:19;98850.22;;;47.85;25.90
46506;BME280;32220;49.808;9.968;2023-08-17T14:06:47;98850.66;;;47.28;24.66
46506;BME280;32220;49.808;9.968;2023-08-17T14:09:14;98825.63;;;46.76;25.24
46506;BME280;32220;49.808;9.968;2023-08-17T14:11:45;98827.34;;;46.43;25.78
46506;BME280;32220;49.808;9.968;2023-08-17T14:14:15;98826.53;;;45.99;25.62
46506;BME280;32220;49.808;9.968;2023-08-17T14:16:48;98825.72;;;45.42;27.09
46506;BME280;32220;49.808;9.968;2023-08-17T14:19:15;98828.16;;;44.64;26.76
46506;BME280;32220;49.808;9.968;2023-08-17T14:21:44;98806.97;;;43.83;28.80
46506;BME280;32220;49.808;9.968;2023-08-17T14:24:12;98812.81;;;43.04;29.47
46506;BME280;32220;49.808;9.968;2023-08-17T14:26:39;98806.94;;;42.46;30.51
46506;BME280;32220;49.808;9.968;2023-08-17T14:29:12;98785.63;;;41.85;30.40
46506;BME280;32220;49.808;9.968;2023-08-17T14:31:40;98795.22;;;41.36;31.18
46506;BME280;32220;49.808;9.968;2023-08-17T14:34:07;98799.13;;;40.87;31.96
46506;BME280;32220;49.808;9.968;2023-08-17T14:36:35;98786.19;;;40.44;33.03
46506;BME280;32220;49.808;9.968;2023-08-17T14:39:04;98783.47;;;40.05;33.08
46506;BME280;32220;49.808;9.968;2023-08-17T14:41:32;98777.63;;;39.62;33.70
46506;BME280;32220;49.808;9.968;2023-08-17T14:44:02;98764.25;;;39.25;34.58
46506;BME280;32220;49.808;9.968;2023-08-17T14:46:32;98760.75;;;38.94;35.12
46506;BME280;32220;49.808;9.968;2023-08-17T14:49:01;98733.75;;;38.56;35.15
46506;BME280;32220;49.808;9.968;2023-08-17T14:51:29;98718.53;;;38.28;36.23
46506;BME280;32220;49.808;9.968;2023-08-17T14:53:56;98736.81;;;38.08;36.27
46506;BME280;32220;49.808;9.968;2023-08-17T14:56:28;98750.88;;;37.87;36.67
46506;BME280;32220;49.808;9.968;2023-08-17T14:58:55;98758.34;;;37.71;37.29
46506;BME280;32220;49.808;9.968;2023-08-17T15:01:26;98761.59;;;37.43;36.70
46506;BME280;32220;49.808;9.968;2023-08-17T15:03:56;98773.13;;;37.19;37.19
46506;BME280;32220;49.808;9.968;2023-08-17T15:06:25;98770.47;;;36.97;37.24